Time;durP1;ratioP1;P1;durP2;ratioP2;P2;SDS_P1;SDS_P2;PMS_P1;PMS_P2;Temp;Humidity;BMP_temperature;BMP_pressure;BME280_temperature;BME280_humidity;BME280_pressure;Samples;Min_cycle;Max_cycle;Signal;HPM_P1;HPM_P2
2023/05/27 00:01:33;;;;;;;21.60;5.97;;;16.40;85.50;;;;;;4197154;28;20113;-59
2023/05/27 00:03:35;;;;;;;20.27;5.68;;;16.40;85.80;;;;;;4197662;28;20135;-56
2023/05/27 00:05:37;;;;;;;19.48;5.20;;;16.40;85.60;;;;;;4198045;28;20071;-54
2023/05/27 00:07:39;;;;;;;25.17;5.93;;;16.30;85.80;;;;;;4198597;28;20045;-54
2023/05/27 00:09:41;;;;;;;22.17;6.78;;;16.20;85.70;;;;;;4198411;28;20402;-57
2023/05/27 00:11:45;;;;;;;23.50;6.63;;;16.20;86.40;;;;;;4197316;28;20127;-57
2023/05/27 00:13:47;;;;;;;26.23;5.47;;;16.20;85.70;;;;;;4198234;28;20045;-54
2023/05/27 00:15:49;;;;;;;21.33;5.00;;;16.20;85.70;;;;;;4197685;28;20049;-53
2023/05/27 00:17:51;;;;;;;26.10;5.63;;;16.20;85.60;;;;;;4197629;28;20111;-57
2023/05/27 00:19:54;;;;;;;19.55;5.38;;;16.10;85.80;;;;;;4196970;28;20040;-53
2023/05/27 00:21:57;;;;;;;25.15;6.50;;;16.10;85.80;;;;;;4197192;28;20095;-53
2023/05/27 00:23:59;;;;;;;18.13;5.88;;;16.10;85.60;;;;;;4198331;28;20068;-53
2023/05/27 00:26:01;;;;;;;21.60;5.38;;;16.00;85.80;;;;;;4201588;28;20067;-55
2023/05/27 00:28:04;;;;;;;23.80;5.82;;;16.00;85.50;;;;;;4214792;28;20075;-53
2023/05/27 00:30:08;;;;;;;23.95;5.75;;;16.00;85.70;;;;;;4214432;28;20083;-53
2023/05/27 00:32:10;;;;;;;18.50;5.53;;;15.90;85.70;;;;;;4213080;28;20119;-54
2023/05/27 00:34:12;;;;;;;24.52;6.03;;;15.90;85.70;;;;;;4214299;28;20036;-53
2023/05/27 00:36:14;;;;;;;29.88;6.15;;;15.80;85.70;;;;;;4214441;28;20076;-54
2023/05/27 00:38:16;;;;;;;18.60;5.68;;;15.80;86.00;;;;;;4209010;28;20143;-58
2023/05/27 00:40:22;;;;;;;19.20;5.45;;;15.70;85.90;;;;;;4197470;28;20048;-57
2023/05/27 00:42:24;;;;;;;19.58;5.75;;;15.70;86.10;;;;;;4196453;28;20087;-57
2023/05/27 00:44:28;;;;;;;24.33;6.05;;;15.70;86.10;;;;;;4197698;28;20382;-56
2023/05/27 00:46:30;;;;;;;18.92;4.90;;;15.80;85.90;;;;;;4200078;28;20048;-56
2023/05/27 00:48:34;;;;;;;16.63;5.05;;;15.80;85.90;;;;;;4197488;28;20041;-55
2023/05/27 00:50:36;;;;;;;25.00;5.38;;;15.70;85.90;;;;;;4197478;28;20122;-56
2023/05/27 00:52:38;;;;;;;22.75;5.95;;;15.70;86.10;;;;;;4196824;28;20048;-54
2023/05/27 00:54:41;;;;;;;20.58;5.20;;;15.70;85.90;;;;;;4198086;28;20066;-53
2023/05/27 00:56:44;;;;;;;22.48;5.68;;;15.80;85.90;;;;;;4198135;28;20052;-54
2023/05/27 00:58:46;;;;;;;21.70;4.85;;;15.70;86.00;;;;;;4197554;28;20147;-54
2023/05/27 01:00:50;;;;;;;19.40;4.85;;;15.70;85.80;;;;;;4197409;28;20379;-53
2023/05/27 01:02:52;;;;;;;19.70;5.38;;;15.70;86.00;;;;;;4197432;28;20044;-56
2023/05/27 01:04:54;;;;;;;22.23;6.03;;;15.70;85.60;;;;;;4199205;28;20060;-62
2023/05/27 01:07:06;;;;;;;15.95;5.22;;;15.70;85.50;;;;;;4199379;28;20075;-59
2023/05/27 01:09:16;;;;;;;19.88;5.40;;;15.70;85.90;;;;;;4199705;28;20056;-57
2023/05/27 01:11:24;;;;;;;25.75;5.90;;;15.70;85.60;;;;;;4198222;28;20083;-58
2023/05/27 01:13:33;;;;;;;22.15;5.93;;;15.60;85.10;;;;;;4198840;28;20048;-59
2023/05/27 01:15:36;;;;;;;20.15;5.35;;;15.60;85.30;;;;;;4199029;28;20047;-56
2023/05/27 01:17:42;;;;;;;19.33;5.35;;;15.50;85.30;;;;;;4199277;28;20526;-59
2023/05/27 01:19:45;;;;;;;17.45;5.00;;;15.50;85.20;;;;;;4197470;28;20515;-56
2023/05/27 01:21:51;;;;;;;20.10;5.20;;;15.50;84.80;;;;;;4195265;28;20399;-57
2023/05/27 01:24:03;;;;;;;19.98;5.07;;;15.50;85.00;;;;;;4197270;28;20417;-53
2023/05/27 01:26:05;;;;;;;18.83;5.32;;;15.50;84.90;;;;;;4195804;28;20115;-54
2023/05/27 01:28:07;;;;;;;18.52;5.43;;;15.50;85.00;;;;;;4212828;28;20059;-54
2023/05/27 01:30:11;;;;;;;19.65;5.07;;;15.40;85.10;;;;;;4213488;28;20044;-56
2023/05/27 01:32:16;;;;;;;19.88;4.88;;;15.40;84.80;;;;;;4212582;28;20044;-57
2023/05/27 01:34:24;;;;;;;14.73;4.50;;;15.40;84.90;;;;;;4196142;28;20056;-56
2023/05/27 01:36:30;;;;;;;19.50;5.10;;;15.40;84.90;;;;;;4214233;28;20044;-55
2023/05/27 01:38:33;;;;;;;15.73;4.88;;;15.40;84.90;;;;;;4215862;28;20063;-61
2023/05/27 01:40:38;;;;;;;15.38;5.18;;;15.40;85.00;;;;;;4215909;28;20070;-55
2023/05/27 01:42:41;;;;;;;19.67;5.38;;;15.40;85.00;;;;;;4213972;28;20530;-54
2023/05/27 01:44:45;;;;;;;21.77;5.18;;;15.40;85.00;;;;;;4216246;28;20399;-57
2023/05/27 01:46:47;;;;;;;15.35;4.30;;;15.40;84.90;;;;;;4215807;28;20143;-56
2023/05/27 01:48:50;;;;;;;19.50;5.00;;;15.40;84.80;;;;;;4215240;28;20055;-57
2023/05/27 01:50:52;;;;;;;20.13;5.25;;;15.40;84.60;;;;;;4214000;28;20070;-58
2023/05/27 01:52:54;;;;;;;19.23;4.88;;;15.40;84.90;;;;;;4212746;28;20051;-54
2023/05/27 01:54:56;;;;;;;15.13;4.93;;;15.40;84.20;;;;;;4213602;28;20058;-53
2023/05/27 01:57:00;;;;;;;23.90;5.78;;;15.30;84.40;;;;;;4213580;28;20052;-58
2023/05/27 01:59:02;;;;;;;20.52;5.40;;;15.20;84.50;;;;;;4213220;28;20044;-57
2023/05/27 02:01:05;;;;;;;15.90;4.18;;;15.30;84.90;;;;;;4213489;28;20062;-58
2023/05/27 02:03:07;;;;;;;19.70;4.80;;;15.20;85.00;;;;;;4212522;28;20048;-58
2023/05/27 02:05:10;;;;;;;16.65;4.93;;;15.20;85.50;;;;;;4213615;28;20457;-57
2023/05/27 02:07:12;;;;;;;17.30;4.38;;;15.20;84.70;;;;;;4213630;28;20048;-57
2023/05/27 02:09:15;;;;;;;21.70;4.97;;;15.20;84.60;;;;;;4213517;28;20048;-57
2023/05/27 02:11:17;;;;;;;14.43;4.60;;;15.10;84.90;;;;;;4212726;28;20131;-57
2023/05/27 02:13:20;;;;;;;17.67;4.53;;;15.10;85.00;;;;;;4194794;28;20052;-57
2023/05/27 02:15:23;;;;;;;15.95;4.30;;;15.10;85.00;;;;;;4213218;28;20040;-57
2023/05/27 02:17:27;;;;;;;21.63;4.57;;;15.20;84.90;;;;;;4195349;28;20049;-56
2023/05/27 02:19:29;;;;;;;18.40;5.05;;;15.20;84.60;;;;;;4213143;28;20040;-56
2023/05/27 02:21:31;;;;;;;15.35;5.00;;;15.10;84.70;;;;;;4212474;28;20109;-56
2023/05/27 02:23:34;;;;;;;22.05;4.85;;;15.10;84.70;;;;;;4212977;28;20051;-53
2023/05/27 02:25:36;;;;;;;24.90;6.05;;;15.10;84.70;;;;;;4213260;28;20051;-53
2023/05/27 02:27:38;;;;;;;16.52;5.10;;;15.00;84.90;;;;;;4212871;28;20107;-58
2023/05/27 02:29:41;;;;;;;16.30;4.65;;;15.10;84.40;;;;;;4195294;28;20131;-56
2023/05/27 02:31:43;;;;;;;15.75;3.95;;;15.10;84.50;;;;;;4212448;28;20048;-57
2023/05/27 02:33:46;;;;;;;15.98;4.43;;;15.10;84.80;;;;;;4213363;28;20052;-57
2023/05/27 02:35:48;;;;;;;21.45;4.70;;;15.10;84.40;;;;;;4213574;28;20048;-56
2023/05/27 02:37:50;;;;;;;16.13;4.30;;;15.00;84.70;;;;;;4211441;28;20127;-57
2023/05/27 02:39:56;;;;;;;17.33;4.85;;;15.00;84.70;;;;;;4199010;28;20052;-54
2023/05/27 02:41:59;;;;;;;16.60;4.68;;;15.00;84.50;;;;;;4198144;28;20130;-54
2023/05/27 02:44:02;;;;;;;16.67;4.68;;;15.00;84.80;;;;;;4199448;28;20044;-53
2023/05/27 02:46:05;;;;;;;16.15;4.78;;;14.90;84.20;;;;;;4198094;28;20147;-54
2023/05/27 02:48:08;;;;;;;17.63;5.32;;;14.80;84.60;;;;;;4199201;28;20482;-53
2023/05/27 02:50:10;;;;;;;18.05;4.93;;;14.80;84.60;;;;;;4199129;28;20051;-53
2023/05/27 02:52:12;;;;;;;19.00;4.72;;;14.80;84.80;;;;;;4197993;28;20040;-53
2023/05/27 02:54:14;;;;;;;24.23;5.47;;;14.80;84.80;;;;;;4199336;28;20123;-52
2023/05/27 02:56:17;;;;;;;15.23;4.43;;;14.80;84.40;;;;;;4199106;28;20147;-53
2023/05/27 02:58:19;;;;;;;15.25;4.20;;;14.80;84.40;;;;;;4198779;28;20037;-53
2023/05/27 03:00:21;;;;;;;20.73;5.22;;;14.80;84.50;;;;;;4199405;28;20119;-53
2023/05/27 03:02:25;;;;;;;15.15;4.18;;;14.70;84.40;;;;;;4198365;28;20131;-62
2023/05/27 03:04:28;;;;;;;21.75;4.95;;;14.70;84.80;;;;;;4199513;28;20052;-54
2023/05/27 03:06:30;;;;;;;12.00;4.03;;;14.60;84.40;;;;;;4199061;28;20049;-54
2023/05/27 03:08:32;;;;;;;13.30;4.78;;;14.70;84.90;;;;;;4199149;28;20045;-55
2023/05/27 03:10:34;;;;;;;14.48;4.18;;;14.60;84.50;;;;;;4198980;28;20095;-54
2023/05/27 03:12:37;;;;;;;17.55;4.78;;;14.70;84.70;;;;;;4197761;28;20053;-54
2023/05/27 03:14:39;;;;;;;18.42;4.88;;;14.60;84.60;;;;;;4199253;28;20452;-54
2023/05/27 03:16:41;;;;;;;13.73;3.53;;;14.60;84.80;;;;;;4199113;28;20483;-53
2023/05/27 03:18:45;;;;;;;18.30;4.93;;;14.60;84.80;;;;;;4199012;28;20359;-54
2023/05/27 03:20:48;;;;;;;14.25;4.38;;;14.60;84.80;;;;;;4198968;28;20439;-53
2023/05/27 03:22:50;;;;;;;14.32;4.57;;;14.60;84.80;;;;;;4197832;28;20482;-54
2023/05/27 03:24:53;;;;;;;20.60;4.38;;;14.60;84.80;;;;;;4198631;28;20075;-55
2023/05/27 03:26:56;;;;;;;23.20;4.80;;;14.50;84.50;;;;;;4209507;28;20117;-55
2023/05/27 03:28:58;;;;;;;16.30;5.20;;;14.50;84.70;;;;;;4215131;28;20044;-53
2023/05/27 03:31:00;;;;;;;18.65;4.97;;;14.40;84.90;;;;;;4214404;28;20079;-54
2023/05/27 03:33:02;;;;;;;13.15;4.05;;;14.40;84.90;;;;;;4214172;28;20044;-56
2023/05/27 03:35:07;;;;;;;16.75;4.47;;;14.50;84.70;;;;;;4215315;28;20383;-56
2023/05/27 03:37:09;;;;;;;15.30;4.00;;;14.50;84.70;;;;;;4215099;28;20040;-57
2023/05/27 03:39:12;;;;;;;16.20;5.25;;;14.50;84.80;;;;;;4202467;28;20048;-56
2023/05/27 03:41:14;;;;;;;16.77;5.30;;;14.50;84.90;;;;;;4198110;28;20057;-57
2023/05/27 03:43:16;;;;;;;16.02;4.45;;;14.40;85.00;;;;;;4197427;28;20101;-56
2023/05/27 03:45:18;;;;;;;20.25;5.47;;;14.40;85.10;;;;;;4198474;28;20490;-56
2023/05/27 03:47:21;;;;;;;18.63;4.90;;;14.40;85.20;;;;;;4198756;28;20075;-55
2023/05/27 03:49:23;;;;;;;14.93;4.18;;;14.30;85.40;;;;;;4198648;28;20049;-56
2023/05/27 03:51:27;;;;;;;22.55;4.88;;;14.30;85.10;;;;;;4197601;28;20482;-54
2023/05/27 03:53:29;;;;;;;16.27;4.53;;;14.40;85.10;;;;;;4197459;28;20136;-53
2023/05/27 03:55:31;;;;;;;14.52;4.38;;;14.30;85.40;;;;;;4197900;28;20048;-52
2023/05/27 03:57:34;;;;;;;17.38;4.93;;;14.30;85.00;;;;;;4198406;28;20044;-53
2023/05/27 03:59:37;;;;;;;14.30;4.15;;;14.30;85.50;;;;;;4198301;28;20052;-53
2023/05/27 04:01:39;;;;;;;18.00;5.28;;;14.30;86.00;;;;;;4197760;28;20048;-56
2023/05/27 04:03:41;;;;;;;16.90;5.03;;;14.30;85.30;;;;;;4197978;28;20135;-56
2023/05/27 04:05:43;;;;;;;15.93;4.57;;;14.40;85.50;;;;;;4198175;28;20078;-56
2023/05/27 04:07:47;;;;;;;24.48;5.30;;;14.40;85.50;;;;;;4197964;28;20126;-56
2023/05/27 04:09:49;;;;;;;18.23;4.68;;;14.40;85.90;;;;;;4197802;28;20052;-56
2023/05/27 04:11:51;;;;;;;18.17;5.03;;;14.40;85.30;;;;;;4197054;28;20123;-56
2023/05/27 04:13:53;;;;;;;13.40;4.18;;;14.40;86.60;;;;;;4197751;28;20070;-56
2023/05/27 04:15:57;;;;;;;20.48;4.60;;;14.40;85.80;;;;;;4198062;28;20471;-55
2023/05/27 04:17:59;;;;;;;18.23;4.88;;;14.40;85.60;;;;;;4197822;28;20143;-56
2023/05/27 04:20:10;;;;;;;15.07;4.63;;;14.40;85.30;;;;;;4197729;28;20055;-55
2023/05/27 04:22:13;;;;;;;18.85;4.82;;;14.40;85.40;;;;;;4197265;28;20062;-53
2023/05/27 04:24:16;;;;;;;18.67;4.80;;;14.40;85.50;;;;;;4197424;28;20052;-55
2023/05/27 04:26:19;;;;;;;16.92;5.03;;;14.40;85.40;;;;;;4203718;28;20469;-56
2023/05/27 04:28:22;;;;;;;20.35;5.20;;;14.40;85.40;;;;;;4214557;28;20051;-55
2023/05/27 04:30:24;;;;;;;17.85;4.60;;;14.40;85.30;;;;;;4214869;28;20048;-58
2023/05/27 04:32:32;;;;;;;16.50;4.85;;;14.30;85.60;;;;;;4214082;28;20080;-57
2023/05/27 04:34:35;;;;;;;22.70;4.70;;;14.30;85.90;;;;;;4214876;28;20036;-56
2023/05/27 04:39:27;;;;;;;19.67;5.20;;;14.30;85.90;;;;;;4202082;28;20373;-56
2023/05/27 04:41:56;;;;;;;23.50;5.68;;;14.30;85.90;;;;;;4185017;28;20061;-56
2023/05/27 04:44:02;;;;;;;20.73;5.05;;;14.30;86.10;;;;;;4199292;28;20048;-59
2023/05/27 04:46:26;;;;;;;16.40;4.63;;;14.30;85.80;;;;;;4197907;28;20048;-57
2023/05/27 04:48:28;;;;;;;22.67;5.03;;;14.30;86.10;;;;;;4197567;28;20048;-57
2023/05/27 04:50:31;;;;;;;13.20;4.57;;;14.30;86.00;;;;;;4197743;28;20494;-56
2023/05/27 04:52:37;;;;;;;19.67;4.70;;;14.20;85.90;;;;;;4195821;28;20063;-57
2023/05/27 04:54:40;;;;;;;24.98;4.85;;;14.30;86.20;;;;;;4197278;28;20067;-56
2023/05/27 04:56:43;;;;;;;20.80;5.25;;;14.30;86.10;;;;;;4197610;28;20051;-56
2023/05/27 04:58:48;;;;;;;14.70;4.72;;;14.30;86.20;;;;;;4197752;28;20052;-57
2023/05/27 05:00:52;;;;;;;19.88;5.05;;;14.20;86.00;;;;;;4197466;28;20093;-56
2023/05/27 05:03:00;;;;;;;20.05;4.63;;;14.30;86.40;;;;;;4196179;28;20048;-56
2023/05/27 05:05:05;;;;;;;20.52;5.40;;;14.30;86.10;;;;;;4197205;28;20048;-57
2023/05/27 05:07:07;;;;;;;23.10;4.60;;;14.30;86.40;;;;;;4195702;28;20478;-56
2023/05/27 05:09:11;;;;;;;17.40;4.80;;;14.20;86.70;;;;;;4197267;28;20055;-56
2023/05/27 05:11:15;;;;;;;21.40;5.38;;;14.20;86.50;;;;;;4197049;28;20051;-56
2023/05/27 05:13:17;;;;;;;19.67;5.25;;;14.20;86.80;;;;;;4196119;28;20052;-56
2023/05/27 05:15:19;;;;;;;17.05;4.70;;;14.30;86.70;;;;;;4197054;28;20048;-55
2023/05/27 05:17:24;;;;;;;11.98;4.32;;;14.30;87.10;;;;;;4197265;28;20048;-55
2023/05/27 05:19:26;;;;;;;17.75;5.10;;;14.30;86.80;;;;;;4197026;28;20045;-54
2023/05/27 05:21:28;;;;;;;21.60;5.28;;;14.40;86.80;;;;;;4196944;28;20048;-56
2023/05/27 05:23:30;;;;;;;15.68;4.70;;;14.30;86.80;;;;;;4195956;28;20068;-55
2023/05/27 05:25:37;;;;;;;22.05;4.78;;;14.40;87.20;;;;;;4197032;28;20045;-55
2023/05/27 05:27:41;;;;;;;23.33;5.32;;;14.40;86.90;;;;;;4196933;28;20040;-57
2023/05/27 05:29:44;;;;;;;17.02;4.82;;;14.50;86.70;;;;;;4197012;28;20048;-55
2023/05/27 05:31:46;;;;;;;15.95;5.03;;;14.50;86.40;;;;;;4196815;28;20051;-57
2023/05/27 05:33:49;;;;;;;21.10;5.15;;;14.50;86.10;;;;;;4199857;28;20051;-57
2023/05/27 05:35:52;;;;;;;16.67;4.93;;;14.50;86.70;;;;;;4213479;28;20048;-56
2023/05/27 05:37:55;;;;;;;18.88;5.30;;;14.50;86.60;;;;;;4211328;28;20093;-56
2023/05/27 05:39:57;;;;;;;17.33;4.65;;;14.50;86.60;;;;;;4196954;28;20123;-57
2023/05/27 05:41:59;;;;;;;19.08;5.10;;;14.60;86.50;;;;;;4196469;28;20056;-56
2023/05/27 05:44:03;;;;;;;20.23;5.00;;;14.50;86.60;;;;;;4196621;28;20044;-56
2023/05/27 05:46:06;;;;;;;15.02;4.22;;;14.60;86.80;;;;;;4197079;28;20045;-56
2023/05/27 05:48:08;;;;;;;19.63;4.88;;;14.70;86.30;;;;;;4196736;28;20135;-56
2023/05/27 05:50:10;;;;;;;21.25;5.90;;;14.70;86.70;;;;;;4197004;28;20383;-55
2023/05/27 05:52:12;;;;;;;27.33;6.03;;;14.70;86.30;;;;;;4195802;28;20310;-56
2023/05/27 05:54:14;;;;;;;20.08;5.43;;;14.70;86.10;;;;;;4196629;28;20131;-56
2023/05/27 05:56:17;;;;;;;19.65;5.40;;;14.70;86.20;;;;;;4196883;28;20052;-55
2023/05/27 05:58:19;;;;;;;18.45;5.88;;;14.80;86.10;;;;;;4196628;28;20041;-56
2023/05/27 06:00:23;;;;;;;14.55;4.68;;;14.80;86.10;;;;;;4196860;28;20127;-56
2023/05/27 06:02:25;;;;;;;18.35;4.68;;;14.80;86.30;;;;;;4195964;28;20861;-55
2023/05/27 06:04:29;;;;;;;24.00;5.80;;;14.90;86.20;;;;;;4195411;28;20480;-55
2023/05/27 06:06:31;;;;;;;17.02;5.38;;;15.00;86.10;;;;;;4196353;28;20401;-53
2023/05/27 06:08:33;;;;;;;18.60;5.40;;;15.00;86.10;;;;;;4196657;28;20051;-55
2023/05/27 06:10:35;;;;;;;13.48;4.85;;;15.10;86.00;;;;;;4196617;28;20051;-54
2023/05/27 06:12:37;;;;;;;18.75;5.15;;;15.00;86.00;;;;;;4195663;28;20410;-54
2023/05/27 06:14:39;;;;;;;18.45;4.93;;;15.10;86.10;;;;;;4198629;28;20056;-55
2023/05/27 06:16:43;;;;;;;18.35;4.78;;;15.10;86.10;;;;;;4199900;28;20075;-55
2023/05/27 06:18:45;;;;;;;21.67;5.72;;;15.20;86.20;;;;;;4199756;28;20048;-55
2023/05/27 06:20:47;;;;;;;20.48;5.80;;;15.20;85.70;;;;;;4199579;28;20568;-54
2023/05/27 06:22:50;;;;;;;22.45;5.40;;;15.20;85.80;;;;;;4198612;28;20076;-55
2023/05/27 06:24:52;;;;;;;19.60;5.65;;;15.20;85.90;;;;;;4199756;28;20102;-54
2023/05/27 06:26:54;;;;;;;17.60;5.43;;;15.20;85.70;;;;;;4210373;28;20040;-55
2023/05/27 06:28:56;;;;;;;18.20;5.50;;;15.30;85.90;;;;;;4216414;28;20082;-55
2023/05/27 06:30:58;;;;;;;18.23;5.00;;;15.20;85.80;;;;;;4198593;28;20044;-56
2023/05/27 06:33:02;;;;;;;18.75;5.63;;;15.20;86.10;;;;;;4215341;28;20117;-55
2023/05/27 06:35:05;;;;;;;15.27;5.43;;;15.20;86.00;;;;;;4215980;28;20065;-58
2023/05/27 06:37:07;;;;;;;19.95;5.55;;;15.30;86.00;;;;;;4216439;28;20047;-58
2023/05/27 06:39:09;;;;;;;22.42;5.22;;;15.30;85.80;;;;;;4203859;28;20055;-58
2023/05/27 06:41:12;;;;;;;23.92;5.97;;;15.40;85.60;;;;;;4199638;28;20052;-57
2023/05/27 06:43:14;;;;;;;21.98;5.43;;;15.50;85.70;;;;;;4197052;28;20087;-58
2023/05/27 06:45:16;;;;;;;13.77;5.18;;;15.50;85.70;;;;;;4199371;28;20133;-56
2023/05/27 06:47:18;;;;;;;26.80;5.63;;;15.60;85.60;;;;;;4199418;28;20044;-54
2023/05/27 06:49:21;;;;;;;14.20;4.90;;;15.60;85.60;;;;;;4199034;28;20409;-54
2023/05/27 06:51:24;;;;;;;22.38;5.65;;;15.70;85.60;;;;;;4199571;28;20052;-54
2023/05/27 06:53:26;;;;;;;17.98;5.05;;;15.70;85.60;;;;;;4198659;28;20051;-55
2023/05/27 06:55:30;;;;;;;16.98;5.88;;;15.70;85.60;;;;;;4199834;28;20052;-55
2023/05/27 06:57:32;;;;;;;17.77;6.00;;;15.70;85.70;;;;;;4199667;28;20131;-55
2023/05/27 06:59:34;;;;;;;22.25;5.55;;;15.70;85.80;;;;;;4199493;28;20049;-53
2023/05/27 07:01:36;;;;;;;17.02;6.20;;;15.80;86.00;;;;;;4199274;28;20052;-54
2023/05/27 07:03:38;;;;;;;16.65;5.15;;;16.00;85.80;;;;;;4197790;28;20040;-53
2023/05/27 07:05:42;;;;;;;23.80;6.47;;;16.20;85.10;;;;;;4199400;28;20048;-54
2023/05/27 07:07:44;;;;;;;21.65;5.72;;;16.30;85.30;;;;;;4198903;28;20452;-53
2023/05/27 07:09:50;;;;;;;16.83;5.45;;;16.60;84.50;;;;;;4199090;28;20151;-56
2023/05/27 07:11:52;;;;;;;18.80;5.25;;;16.70;84.30;;;;;;4198932;28;20072;-53
2023/05/27 07:13:56;;;;;;;18.52;5.10;;;16.70;83.80;;;;;;4197982;28;20045;-54
2023/05/27 07:15:58;;;;;;;18.50;6.05;;;16.90;83.70;;;;;;4199002;28;20487;-54
2023/05/27 07:18:00;;;;;;;16.02;5.32;;;17.00;83.50;;;;;;4198961;28;20475;-54
2023/05/27 07:20:02;;;;;;;25.10;5.90;;;17.00;83.60;;;;;;4199050;28;20052;-54
2023/05/27 07:22:06;;;;;;;32.13;5.15;;;16.90;82.90;;;;;;4199168;28;20074;-57
2023/05/27 07:24:08;;;;;;;17.80;4.68;;;16.90;83.30;;;;;;4198622;28;20076;-56
2023/05/27 07:26:10;;;;;;;16.50;5.57;;;16.90;83.50;;;;;;4204894;28;20044;-62
2023/05/27 07:28:13;;;;;;;25.13;5.75;;;16.90;83.90;;;;;;4218074;28;20602;-56
2023/05/27 07:30:15;;;;;;;13.90;4.57;;;16.90;83.80;;;;;;4216653;28;20074;-57
2023/05/27 07:32:23;;;;;;;19.45;5.13;;;17.00;83.30;;;;;;4216709;28;20055;-61
2023/05/27 07:34:25;;;;;;;13.57;4.70;;;17.10;84.00;;;;;;4217849;28;20043;-56
2023/05/27 07:36:27;;;;;;;16.35;5.25;;;17.30;83.70;;;;;;4218068;28;20471;-67
2023/05/27 07:38:30;;;;;;;22.40;6.00;;;17.50;83.20;;;;;;4209172;28;20052;-59
2023/05/27 07:40:32;;;;;;;20.45;5.72;;;17.40;83.50;;;;;;4199161;28;20132;-57
2023/05/27 07:42:35;;;;;;;18.00;5.68;;;17.50;83.70;;;;;;4197660;28;20045;-57
2023/05/27 07:44:37;;;;;;;23.02;6.05;;;17.50;83.00;;;;;;4198415;28;20076;-54
2023/05/27 07:46:39;;;;;;;21.38;5.57;;;17.70;83.10;;;;;;4198367;28;20159;-53
2023/05/27 07:48:41;;;;;;;19.05;5.97;;;17.80;82.90;;;;;;4198433;28;20049;-56
2023/05/27 07:50:43;;;;;;;16.20;5.22;;;17.70;82.30;;;;;;4197192;28;20045;-57
2023/05/27 07:52:46;;;;;;;19.08;4.70;;;17.70;82.70;;;;;;4197444;28;20052;-56
2023/05/27 07:54:50;;;;;;;14.95;5.38;;;17.80;82.50;;;;;;4198386;28;20044;-55
2023/05/27 07:56:57;;;;;;;21.15;5.55;;;17.90;82.80;;;;;;4198206;28;20048;-58
2023/05/27 07:59:00;;;;;;;19.08;5.75;;;18.10;82.80;;;;;;4198452;28;20143;-57
2023/05/27 08:01:02;;;;;;;19.88;5.63;;;18.20;82.80;;;;;;4197761;28;20049;-56
2023/05/27 08:03:04;;;;;;;17.65;5.15;;;18.30;82.20;;;;;;4197287;28;20382;-56
2023/05/27 08:05:07;;;;;;;26.70;6.95;;;18.20;82.50;;;;;;4198201;28;20054;-56
2023/05/27 08:07:10;;;;;;;21.33;5.63;;;18.30;82.10;;;;;;4197987;28;20076;-56
2023/05/27 08:09:12;;;;;;;11.85;4.80;;;18.20;81.70;;;;;;4197850;28;20106;-56
2023/05/27 08:11:15;;;;;;;20.35;5.45;;;18.30;82.30;;;;;;4198333;28;20055;-56
2023/05/27 08:13:17;;;;;;;20.02;5.20;;;18.40;82.90;;;;;;4196804;28;20059;-56
2023/05/27 08:15:20;;;;;;;18.20;5.28;;;18.70;82.40;;;;;;4197433;28;20058;-55
2023/05/27 08:17:22;;;;;;;15.98;4.13;;;18.70;81.50;;;;;;4211347;28;20040;-57
2023/05/27 08:19:24;;;;;;;21.40;5.38;;;18.80;82.60;;;;;;4214491;28;20406;-57
2023/05/27 08:21:28;;;;;;;23.70;5.50;;;18.80;81.60;;;;;;4196301;28;20111;-57
2023/05/27 08:23:30;;;;;;;19.00;6.63;;;18.90;81.20;;;;;;4213064;28;20052;-57
2023/05/27 08:25:32;;;;;;;22.63;5.55;;;18.90;81.80;;;;;;4214302;28;20048;-57
2023/05/27 08:27:49;;;;;;;22.35;5.60;;;19.10;80.80;;;;;;4214169;28;20431;-57
2023/05/27 08:29:51;;;;;;;20.00;6.43;;;19.00;80.70;;;;;;4196361;28;20075;-57
2023/05/27 08:31:54;;;;;;;18.17;5.50;;;18.90;80.40;;;;;;4214453;28;20040;-57
2023/05/27 08:33:56;;;;;;;14.38;5.10;;;19.00;80.60;;;;;;4213040;28;20047;-56
2023/05/27 08:35:58;;;;;;;16.02;4.85;;;19.10;79.70;;;;;;4214351;28;20105;-57
2023/05/27 08:38:00;;;;;;;17.65;5.43;;;19.20;80.60;;;;;;4210939;28;20131;-57
2023/05/27 08:40:06;;;;;;;15.43;5.32;;;19.20;80.30;;;;;;4197472;28;20044;-56
2023/05/27 08:42:08;;;;;;;15.82;5.70;;;19.40;80.70;;;;;;4197384;28;20053;-57
2023/05/27 08:44:12;;;;;;;14.43;5.30;;;19.60;79.40;;;;;;4196619;28;20135;-56
2023/05/27 08:46:27;;;;;;;16.98;5.57;;;19.60;79.90;;;;;;4196959;28;20055;-56
2023/05/27 08:48:29;;;;;;;18.42;5.38;;;19.60;79.90;;;;;;4197672;28;20119;-57
2023/05/27 08:50:32;;;;;;;14.60;4.40;;;19.90;80.80;;;;;;4209481;28;20047;-58
2023/05/27 08:52:42;;;;;;;19.55;5.32;;;19.90;79.60;;;;;;4213760;28;20409;-57
2023/05/27 08:54:45;;;;;;;21.17;4.90;;;20.00;79.40;;;;;;4214082;28;20048;-53
2023/05/27 08:56:51;;;;;;;17.98;5.00;;;19.90;79.40;;;;;;4196162;28;20052;-53
2023/05/27 08:58:54;;;;;;;19.27;4.85;;;20.00;78.70;;;;;;4213644;28;20040;-54
2023/05/27 09:00:58;;;;;;;29.17;5.25;;;20.00;78.90;;;;;;4214112;28;20052;-54
2023/05/27 09:03:02;;;;;;;14.77;5.43;;;20.00;79.10;;;;;;4212988;28;20039;-55
2023/05/27 09:05:05;;;;;;;13.40;4.75;;;20.10;80.20;;;;;;4214195;28;20160;-55
2023/05/27 09:07:08;;;;;;;16.60;5.03;;;20.20;80.00;;;;;;4213510;28;20173;-55
2023/05/27 09:09:11;;;;;;;17.65;5.45;;;20.20;79.40;;;;;;4214087;28;20078;-55
2023/05/27 09:11:20;;;;;;;24.23;5.63;;;20.30;78.70;;;;;;4213854;28;20465;-56
2023/05/27 09:13:26;;;;;;;17.60;6.03;;;20.30;78.50;;;;;;4211927;28;20466;-55
2023/05/27 09:15:31;;;;;;;18.13;4.95;;;20.40;79.60;;;;;;4211262;28;20555;-56
2023/05/27 09:17:40;;;;;;;21.88;5.70;;;20.40;79.10;;;;;;4206982;28;20055;-57
2023/05/27 09:19:44;;;;;;;19.65;5.63;;;20.50;78.80;;;;;;4204865;28;20040;-55
2023/05/27 09:21:46;;;;;;;20.00;5.47;;;20.60;79.60;;;;;;4193205;28;20052;-55
2023/05/27 09:23:48;;;;;;;23.23;5.70;;;20.70;79.10;;;;;;4209548;28;20359;-59
2023/05/27 09:25:51;;;;;;;17.02;5.47;;;20.80;78.40;;;;;;4212309;28;20401;-54
2023/05/27 09:27:53;;;;;;;19.98;5.60;;;20.70;78.30;;;;;;4210304;28;20541;-56
2023/05/27 09:29:56;;;;;;;19.05;5.50;;;20.70;78.70;;;;;;4211911;28;20050;-57
2023/05/27 09:32:00;;;;;;;13.90;4.93;;;20.80;78.30;;;;;;4186856;28;20144;-56
2023/05/27 09:34:12;;;;;;;14.27;4.72;;;20.80;78.50;;;;;;4209804;28;20402;-54
2023/05/27 09:36:20;;;;;;;17.95;5.85;;;20.90;77.50;;;;;;4209585;28;20050;-54
2023/05/27 09:38:24;;;;;;;17.42;5.30;;;20.80;77.70;;;;;;4208047;28;20044;-61
2023/05/27 09:40:27;;;;;;;18.23;5.53;;;20.80;78.60;;;;;;4212794;28;20075;-54
2023/05/27 09:42:38;;;;;;;19.00;5.95;;;20.60;78.30;;;;;;4211041;28;20105;-54
2023/05/27 09:44:41;;;;;;;18.42;5.70;;;20.60;78.30;;;;;;4211487;28;20060;-56
2023/05/27 09:46:45;;;;;;;22.65;6.05;;;20.70;78.90;;;;;;4212861;28;20078;-56
2023/05/27 09:48:48;;;;;;;19.50;5.07;;;20.80;78.90;;;;;;4213609;28;20118;-58
2023/05/27 09:50:54;;;;;;;19.77;5.15;;;20.90;78.80;;;;;;4216121;28;20433;-57
2023/05/27 09:52:57;;;;;;;20.83;5.53;;;21.20;78.70;;;;;;4214325;28;20103;-58
2023/05/27 09:55:13;;;;;;;21.10;6.00;;;21.20;77.90;;;;;;4216003;28;20151;-57
2023/05/27 09:57:17;;;;;;;18.40;5.40;;;21.10;77.90;;;;;;4215643;28;20075;-57
2023/05/27 09:59:19;;;;;;;22.00;5.75;;;21.00;78.50;;;;;;4216033;28;20040;-57
2023/05/27 10:01:25;;;;;;;16.65;4.90;;;21.10;79.50;;;;;;4216235;28;20467;-57
2023/05/27 10:03:29;;;;;;;18.10;4.95;;;21.30;78.60;;;;;;4212413;28;20386;-57
2023/05/27 10:05:33;;;;;;;19.70;5.50;;;21.40;78.70;;;;;;4216025;28;20052;-56
2023/05/27 10:07:39;;;;;;;20.50;6.22;;;21.40;78.50;;;;;;4216098;28;20052;-54
2023/05/27 10:10:01;;;;;;;21.02;5.75;;;21.50;78.70;;;;;;4216209;28;20440;-57
2023/05/27 10:12:05;;;;;;;18.27;5.50;;;21.70;78.90;;;;;;4215572;28;20058;-57
2023/05/27 10:14:08;;;;;;;21.48;6.22;;;21.90;78.50;;;;;;4196869;28;20047;-54
2023/05/27 10:16:19;;;;;;;18.98;5.68;;;21.80;78.20;;;;;;4216205;28;20055;-57
2023/05/27 10:18:25;;;;;;;16.35;5.55;;;21.90;77.90;;;;;;4216068;28;20072;-56
2023/05/27 10:20:30;;;;;;;13.98;4.80;;;21.90;78.10;;;;;;4213281;28;20482;-59
2023/05/27 10:22:43;;;;;;;18.45;5.35;;;22.00;77.60;;;;;;4215814;28;20071;-55
2023/05/27 10:24:48;;;;;;;21.48;5.93;;;21.90;78.10;;;;;;4214760;28;20044;-58
2023/05/27 10:27:02;;;;;;;18.77;5.63;;;21.80;78.00;;;;;;4215393;28;20079;-57
2023/05/27 10:29:09;;;;;;;15.25;5.18;;;21.80;78.30;;;;;;4216039;28;20040;-57
2023/05/27 10:31:14;;;;;;;17.45;5.25;;;21.80;77.70;;;;;;4215901;28;20059;-57
2023/05/27 10:33:16;;;;;;;16.25;5.25;;;21.60;77.70;;;;;;4216285;28;20052;-60
2023/05/27 10:35:18;;;;;;;22.27;5.57;;;21.60;78.30;;;;;;4199547;28;20131;-57
2023/05/27 10:37:21;;;;;;;16.13;5.13;;;21.70;78.70;;;;;;4218057;28;20048;-60